Time;durP1;ratioP1;P1;durP2;ratioP2;P2;SDS_P1;SDS_P2;PMS_P1;PMS_P2;Temp;Humidity;BMP_temperature;BMP_pressure;BME280_temperature;BME280_humidity;BME280_pressure;Samples;Min_cycle;Max_cycle;Signal;HPM_P1;HPM_P2
2021/06/10 00:00:51;;;;;;;;;;;;;;;24.73;46.29;101286.28;4949813;28;1080;-67
2021/06/10 00:03:18;;;;;;;;;;;;;;;24.77;46.19;101277.13;4949145;28;1919;-67
2021/06/10 00:05:45;;;;;;;;;;;;;;;24.74;46.22;101272.00;4916382;28;1448;-67
2021/06/10 00:08:11;;;;;;;;;;;;;;;24.72;46.39;101268.59;4931233;28;1320;-67
2021/06/10 00:10:39;;;;;;;;;;;;;;;24.73;46.75;101270.31;4949583;28;779;-67
2021/06/10 00:13:06;;;;;;;;;;;;;;;24.70;46.86;101268.72;4949170;28;1213;-68
2021/06/10 00:15:34;;;;;;;;;;;;;;;24.70;46.47;101275.84;4949098;28;827;-67
2021/06/10 00:18:00;;;;;;;;;;;;;;;24.68;46.28;101272.47;4948970;28;1323;-67
2021/06/10 00:20:28;;;;;;;;;;;;;;;24.67;46.49;101273.41;4949032;28;799;-67
2021/06/10 00:22:55;;;;;;;;;;;;;;;24.71;46.65;101282.91;4948777;28;1299;-68
2021/06/10 00:25:22;;;;;;;;;;;;;;;24.67;46.64;101278.75;4931663;28;1919;-68
2021/06/10 00:27:49;;;;;;;;;;;;;;;24.64;46.79;101278.97;4947876;29;1326;-68
2021/06/10 00:30:17;;;;;;;;;;;;;;;24.64;47.39;101277.16;4947519;28;1272;-67
2021/06/10 00:32:45;;;;;;;;;;;;;;;24.60;47.31;101259.69;4948715;28;1349;-67
2021/06/10 00:35:12;;;;;;;;;;;;;;;24.59;47.72;101258.00;4949013;28;1237;-67
2021/06/10 00:37:39;;;;;;;;;;;;;;;24.57;47.68;101259.91;4948770;28;1225;-67
2021/06/10 00:40:06;;;;;;;;;;;;;;;24.57;47.73;101264.41;4949070;28;1273;-67
2021/06/10 00:42:33;;;;;;;;;;;;;;;24.57;47.58;101265.25;4948562;28;1233;-67
2021/06/10 00:45:00;;;;;;;;;;;;;;;24.58;47.63;101266.09;4948873;28;1919;-67
2021/06/10 00:47:27;;;;;;;;;;;;;;;24.55;47.25;101261.84;4946897;28;1269;-67
2021/06/10 00:49:54;;;;;;;;;;;;;;;24.49;47.16;101256.97;4947453;28;1423;-67
2021/06/10 00:52:20;;;;;;;;;;;;;;;24.46;47.02;101255.41;4947957;28;1255;-67
2021/06/10 00:54:47;;;;;;;;;;;;;;;24.45;47.00;101251.03;4948662;28;1131;-64
2021/06/10 00:57:14;;;;;;;;;;;;;;;24.44;47.27;101259.09;4948438;28;1258;-66
2021/06/10 00:59:41;;;;;;;;;;;;;;;24.48;46.86;101249.94;4947056;28;1038;-67
2021/06/10 01:02:07;;;;;;;;;;;;;;;24.47;46.77;101249.09;4948496;28;1229;-66
2021/06/10 01:04:34;;;;;;;;;;;;;;;24.44;46.76;101249.31;4948440;28;1906;-66
2021/06/10 01:07:15;;;;;;;;;;;;;;;24.42;46.79;101251.25;4948480;28;1174;-66
2021/06/10 01:09:52;;;;;;;;;;;;;;;24.40;46.58;101258.50;4946834;28;1311;-66
2021/06/10 01:12:26;;;;;;;;;;;;;;;24.39;46.48;101251.47;4948180;28;1335;-67
2021/06/10 01:15:11;;;;;;;;;;;;;;;24.39;46.26;101248.81;4948528;29;1044;-68
2021/06/10 01:17:43;;;;;;;;;;;;;;;24.40;46.05;101245.19;4948207;29;1265;-68
2021/06/10 01:20:17;;;;;;;;;;;;;;;24.34;46.24;101237.66;4947264;29;1284;-67
2021/06/10 01:22:44;;;;;;;;;;;;;;;24.34;45.80;101236.78;4947958;28;1300;-68
2021/06/10 01:25:19;;;;;;;;;;;;;;;24.35;46.36;101239.34;4948678;28;1970;-64
2021/06/10 01:28:01;;;;;;;;;;;;;;;24.35;46.23;101234.00;4931338;28;1232;-67
2021/06/10 01:30:30;;;;;;;;;;;;;;;24.31;46.25;101237.88;4948018;28;865;-67
2021/06/10 01:32:58;;;;;;;;;;;;;;;24.30;46.24;101229.97;4946458;28;1272;-66
2021/06/10 01:35:26;;;;;;;;;;;;;;;24.28;46.36;101235.44;4947837;28;764;-67
2021/06/10 01:37:55;;;;;;;;;;;;;;;24.30;46.75;101238.81;4948154;28;1292;-67
2021/06/10 01:40:22;;;;;;;;;;;;;;;24.24;46.63;101233.94;4947546;28;1203;-67
2021/06/10 01:42:49;;;;;;;;;;;;;;;24.25;46.71;101229.47;4947816;28;1229;-66
2021/06/10 01:45:16;;;;;;;;;;;;;;;24.26;47.45;101229.34;4946520;28;1907;-66
2021/06/10 01:47:45;;;;;;;;;;;;;;;24.20;47.14;101224.47;4947816;28;1259;-68
2021/06/10 01:50:14;;;;;;;;;;;;;;;24.20;47.24;101219.16;4946759;28;1298;-66
2021/06/10 01:52:42;;;;;;;;;;;;;;;24.17;47.63;101211.38;4948115;28;1225;-66
2021/06/10 01:55:11;;;;;;;;;;;;;;;24.21;47.44;101214.69;4947923;28;1613;-67
2021/06/10 01:57:39;;;;;;;;;;;;;;;24.20;47.75;101203.19;4946920;28;1359;-67
2021/06/10 02:00:07;;;;;;;;;;;;;;;24.21;47.79;101207.56;4948209;28;1310;-67
2021/06/10 02:02:35;;;;;;;;;;;;;;;24.22;47.65;101192.44;4947716;28;1197;-66
2021/06/10 02:05:03;;;;;;;;;;;;;;;24.21;47.71;101194.25;4946516;28;1914;-67
2021/06/10 02:07:30;;;;;;;;;;;;;;;24.20;47.32;101189.00;4947849;28;1352;-67
2021/06/10 02:09:56;;;;;;;;;;;;;;;24.20;46.77;101186.34;4947988;28;1249;-67
2021/06/10 02:12:23;;;;;;;;;;;;;;;24.24;46.45;101182.50;4947653;28;1249;-66
2021/06/10 02:14:50;;;;;;;;;;;;;;;24.21;46.06;101180.94;4948051;28;1036;-66
2021/06/10 02:17:17;;;;;;;;;;;;;;;24.19;46.08;101176.69;4947795;28;1229;-67
2021/06/10 02:19:44;;;;;;;;;;;;;;;24.20;45.54;101178.38;4947783;28;1047;-67
2021/06/10 02:22:11;;;;;;;;;;;;;;;24.23;45.40;101181.66;4947646;28;1332;-66
2021/06/10 02:24:38;;;;;;;;;;;;;;;24.28;45.49;101184.84;4945887;28;1982;-67
2021/06/10 02:27:05;;;;;;;;;;;;;;;24.22;45.66;101182.63;4945987;28;1231;-67
2021/06/10 02:29:32;;;;;;;;;;;;;;;24.19;45.92;101188.19;4947628;28;1032;-67
2021/06/10 02:31:58;;;;;;;;;;;;;;;24.19;45.74;101185.53;4948993;28;1296;-67
2021/06/10 02:34:25;;;;;;;;;;;;;;;24.19;46.19;101190.00;4951005;28;1169;-67
2021/06/10 02:36:52;;;;;;;;;;;;;;;24.21;45.85;101185.41;4950206;28;1229;-68
2021/06/10 02:39:20;;;;;;;;;;;;;;;24.23;46.08;101180.81;4950451;28;1076;-67
2021/06/10 02:41:50;;;;;;;;;;;;;;;24.19;46.25;101179.34;4950692;28;1324;-67
2021/06/10 02:44:17;;;;;;;;;;;;;;;24.16;46.25;101175.09;4950556;28;1982;-66
2021/06/10 02:46:44;;;;;;;;;;;;;;;24.14;46.43;101174.34;4950352;28;1365;-66
2021/06/10 02:49:12;;;;;;;;;;;;;;;24.17;46.26;101174.13;4949161;28;1079;-66
2021/06/10 02:51:39;;;;;;;;;;;;;;;24.16;46.23;101180.44;4950467;28;1241;-66
2021/06/10 02:54:07;;;;;;;;;;;;;;;24.14;46.37;101179.66;4948930;28;1023;-67
2021/06/10 02:56:35;;;;;;;;;;;;;;;24.12;46.23;101175.44;4950248;28;1288;-66
2021/06/10 02:59:03;;;;;;;;;;;;;;;24.11;46.46;101176.38;4948651;28;1295;-65
2021/06/10 03:01:34;;;;;;;;;;;;;;;24.10;46.46;101178.19;4949932;28;1244;-66
2021/06/10 03:04:02;;;;;;;;;;;;;;;24.08;46.54;101177.41;4950425;29;1978;-65
2021/06/10 03:06:29;;;;;;;;;;;;;;;24.07;46.71;101172.22;4949952;28;1245;-66
2021/06/10 03:08:56;;;;;;;;;;;;;;;24.04;46.85;101183.09;4949550;28;1041;-66
2021/06/10 03:11:23;;;;;;;;;;;;;;;24.05;47.02;101184.78;4950022;28;1165;-66
2021/06/10 03:13:51;;;;;;;;;;;;;;;24.04;47.26;101177.78;4950276;28;1144;-66
2021/06/10 03:16:18;;;;;;;;;;;;;;;24.05;47.14;101180.31;4949845;28;1233;-65
2021/06/10 03:18:45;;;;;;;;;;;;;;;24.07;47.60;101185.53;4950018;28;1123;-65
2021/06/10 03:21:12;;;;;;;;;;;;;;;24.06;47.95;101183.81;4950011;28;1092;-66
2021/06/10 03:23:40;;;;;;;;;;;;;;;24.07;48.38;101190.84;4950064;28;1042;-66
2021/06/10 03:26:07;;;;;;;;;;;;;;;24.05;48.58;101182.97;4949387;28;1910;-65
2021/06/10 03:28:34;;;;;;;;;;;;;;;24.06;48.84;101190.00;4948239;28;1197;-66
2021/06/10 03:31:01;;;;;;;;;;;;;;;24.04;49.02;101183.94;4948808;28;1122;-66
2021/06/10 03:33:28;;;;;;;;;;;;;;;24.06;49.02;101192.66;4949990;28;1316;-66
2021/06/10 03:35:55;;;;;;;;;;;;;;;24.10;49.54;101183.50;4949502;28;858;-66
2021/06/10 03:38:23;;;;;;;;;;;;;;;24.05;49.59;101188.28;4949790;28;1237;-66
2021/06/10 03:40:51;;;;;;;;;;;;;;;24.11;49.53;101182.56;4949627;28;830;-66
2021/06/10 03:43:18;;;;;;;;;;;;;;;24.13;50.10;101180.66;4948641;28;1346;-65
2021/06/10 03:45:45;;;;;;;;;;;;;;;24.03;49.88;101184.91;4949255;28;1962;-66
2021/06/10 03:48:12;;;;;;;;;;;;;;;24.05;50.04;101187.44;4949600;28;1343;-65
2021/06/10 03:50:38;;;;;;;;;;;;;;;24.05;50.07;101190.09;4949945;28;852;-65
2021/06/10 03:53:06;;;;;;;;;;;;;;;23.99;49.96;101188.72;4949186;28;1324;-66
2021/06/10 03:55:33;;;;;;;;;;;;;;;23.98;50.35;101186.19;4949452;28;787;-66
2021/06/10 03:58:00;;;;;;;;;;;;;;;23.94;50.30;101188.22;4949286;28;1221;-66
2021/06/10 04:00:28;;;;;;;;;;;;;;;24.00;50.34;101186.91;4949251;28;815;-66
2021/06/10 04:02:59;;;;;;;;;;;;;;;23.97;50.44;101193.31;4947808;28;1314;-66
2021/06/10 04:05:28;;;;;;;;;;;;;;;24.04;50.11;101186.59;4949280;28;1912;-66
2021/06/10 04:07:56;;;;;;;;;;;;;;;24.03;50.17;101190.22;4947695;28;1359;-66
2021/06/10 04:10:23;;;;;;;;;;;;;;;23.97;50.34;101185.34;4949236;28;807;-65
2021/06/10 04:12:50;;;;;;;;;;;;;;;24.00;50.18;101186.91;4951649;28;1591;-66
2021/06/10 04:15:17;;;;;;;;;;;;;;;24.02;50.17;101185.00;4947853;28;1244;-67
2021/06/10 04:17:44;;;;;;;;;;;;;;;23.99;50.61;101182.56;4949289;28;1328;-67
2021/06/10 04:20:12;;;;;;;;;;;;;;;23.92;50.52;101188.31;4962341;28;1291;-67
2021/06/10 04:22:39;;;;;;;;;;;;;;;24.00;50.36;101185.13;4968411;28;1319;-67
2021/06/10 04:25:06;;;;;;;;;;;;;;;23.95;50.55;101185.44;4968589;28;1910;-66
2021/06/10 04:27:33;;;;;;;;;;;;;;;23.93;50.40;101190.03;4968138;28;1213;-67
2021/06/10 04:30:00;;;;;;;;;;;;;;;23.95;50.59;101189.94;4968562;28;1176;-66
2021/06/10 04:32:27;;;;;;;;;;;;;;;23.97;50.76;101192.47;4966578;28;1335;-66
2021/06/10 04:34:53;;;;;;;;;;;;;;;23.96;50.74;101191.63;4968502;28;910;-66
2021/06/10 04:37:20;;;;;;;;;;;;;;;23.93;50.58;101187.38;4966437;28;1217;-67
2021/06/10 04:39:47;;;;;;;;;;;;;;;23.94;50.63;101191.75;4968250;28;1075;-66
2021/06/10 04:42:14;;;;;;;;;;;;;;;23.98;50.72;101188.84;4966804;28;1265;-66
2021/06/10 04:44:41;;;;;;;;;;;;;;;24.02;50.71;101193.84;4968006;28;1930;-63
2021/06/10 04:47:08;;;;;;;;;;;;;;;24.11;50.57;101193.19;4951375;28;1432;-64
2021/06/10 04:49:36;;;;;;;;;;;;;;;24.10;50.72;101188.81;4948682;28;943;-64
2021/06/10 04:52:04;;;;;;;;;;;;;;;24.10;50.72;101190.63;4948644;28;1251;-63
2021/06/10 04:54:31;;;;;;;;;;;;;;;24.09;50.68;101189.78;4948036;28;1493;-64
2021/06/10 04:56:58;;;;;;;;;;;;;;;24.14;50.70;101192.13;4958160;28;1354;-63
2021/06/10 04:59:25;;;;;;;;;;;;;;;24.10;50.85;101199.47;4947909;29;1054;-62
2021/06/10 05:01:51;;;;;;;;;;;;;;;24.10;50.97;101204.78;4946358;28;1868;-63
2021/06/10 05:04:18;;;;;;;;;;;;;;;24.12;50.86;101202.91;4947629;28;1179;-62
2021/06/10 05:06:45;;;;;;;;;;;;;;;24.12;50.94;101196.72;4947645;28;1910;-62
2021/06/10 05:09:12;;;;;;;;;;;;;;;24.10;50.98;101196.81;4948002;28;881;-63
2021/06/10 05:11:39;;;;;;;;;;;;;;;24.06;51.13;101202.44;4946071;28;1249;-63
2021/06/10 05:14:06;;;;;;;;;;;;;;;24.09;51.00;101197.75;4946077;28;1085;-62
2021/06/10 05:16:33;;;;;;;;;;;;;;;24.11;50.95;101200.31;4947426;28;1317;-68
2021/06/10 05:19:00;;;;;;;;;;;;;;;24.07;51.16;101196.19;4947296;28;1073;-69
2021/06/10 05:21:26;;;;;;;;;;;;;;;24.09;50.89;101200.41;4946920;28;1224;-67
2021/06/10 05:23:54;;;;;;;;;;;;;;;24.09;50.96;101194.25;4947411;28;911;-69
2021/06/10 05:26:20;;;;;;;;;;;;;;;24.10;50.87;101196.81;4945469;28;1911;-66
2021/06/10 05:28:47;;;;;;;;;;;;;;;24.12;50.65;101202.91;4947053;28;1063;-68
2021/06/10 05:31:14;;;;;;;;;;;;;;;24.10;50.94;101194.16;4947038;28;1310;-67
2021/06/10 05:33:41;;;;;;;;;;;;;;;24.07;50.82;101197.03;4945483;28;1153;-67
2021/06/10 05:36:07;;;;;;;;;;;;;;;24.11;50.78;101203.84;4947314;28;840;-68
2021/06/10 05:38:34;;;;;;;;;;;;;;;24.15;50.60;101205.34;4945568;28;1250;-68
2021/06/10 05:41:01;;;;;;;;;;;;;;;24.24;51.10;101220.63;4945258;28;1200;-68
2021/06/10 05:43:28;;;;;;;;;;;;;;;24.30;50.80;101212.19;4945455;28;1422;-69
2021/06/10 05:45:55;;;;;;;;;;;;;;;24.37;50.59;101215.28;4952776;28;1988;-67
2021/06/10 05:48:22;;;;;;;;;;;;;;;24.31;50.81;101215.72;4951527;28;1304;-67
2021/06/10 05:50:49;;;;;;;;;;;;;;;24.38;50.53;101217.81;4947021;28;993;-67
2021/06/10 05:53:16;;;;;;;;;;;;;;;24.36;50.98;101217.06;4947267;28;1231;-65
2021/06/10 05:55:45;;;;;;;;;;;;;;;24.37;51.50;101216.13;4947193;28;791;-65
2021/06/10 05:58:13;;;;;;;;;;;;;;;24.33;51.19;101224.44;4929471;28;1245;-66
2021/06/10 06:00:40;;;;;;;;;;;;;;;24.32;51.21;101212.94;4945073;28;1405;-66
2021/06/10 06:03:09;;;;;;;;;;;;;;;24.39;52.79;101214.19;4945189;28;1237;-64
2021/06/10 06:05:35;;;;;;;;;;;;;;;24.45;51.73;101224.38;4946570;28;1973;-66
2021/06/10 06:08:02;;;;;;;;;;;;;;;24.41;51.24;101225.56;4963732;28;1685;-66
2021/06/10 06:10:30;;;;;;;;;;;;;;;24.42;51.90;101229.94;4969266;28;1108;-67
2021/06/10 06:12:59;;;;;;;;;;;;;;;24.45;51.62;101235.03;4951856;28;1351;-64
2021/06/10 06:15:26;;;;;;;;;;;;;;;24.44;51.32;101225.34;4949763;29;767;-65
2021/06/10 06:17:53;;;;;;;;;;;;;;;24.42;51.44;101224.63;4949701;28;1233;-65
2021/06/10 06:20:21;;;;;;;;;;;;;;;24.42;51.51;101224.63;4949452;28;1489;-63
2021/06/10 06:22:49;;;;;;;;;;;;;;;24.42;51.62;101229.09;4949788;28;1830;-64
2021/06/10 06:25:16;;;;;;;;;;;;;;;24.41;51.68;101225.56;4970816;28;1914;-64
2021/06/10 06:27:43;;;;;;;;;;;;;;;24.47;51.44;101224.25;5040650;28;1249;-67
2021/06/10 06:30:11;;;;;;;;;;;;;;;24.44;51.17;101225.34;4987066;28;1166;-69
2021/06/10 06:32:38;;;;;;;;;;;;;;;24.56;52.34;101228.94;4979852;28;1479;-68
2021/06/10 06:35:06;;;;;;;;;;;;;;;24.64;52.14;101228.38;4987340;28;1179;-69
2021/06/10 06:37:34;;;;;;;;;;;;;;;24.68;52.62;101232.50;4986681;28;1154;-68
2021/06/10 06:40:01;;;;;;;;;;;;;;;24.70;52.38;101222.56;4987270;28;1220;-66
2021/06/10 06:42:27;;;;;;;;;;;;;;;24.74;52.16;101235.56;4984559;28;1403;-68
2021/06/10 06:44:55;;;;;;;;;;;;;;;24.74;51.96;101229.38;4979158;28;1523;-68
2021/06/10 06:47:22;;;;;;;;;;;;;;;24.76;53.19;101240.78;4947543;28;1323;-66
2021/06/10 06:49:48;;;;;;;;;;;;;;;24.86;52.51;101231.16;4946520;28;1508;-68
2021/06/10 06:52:15;;;;;;;;;;;;;;;24.79;52.30;101235.22;4947410;28;1362;-68
2021/06/10 06:54:42;;;;;;;;;;;;;;;24.76;52.42;101230.13;4946890;28;1579;-65
2021/06/10 06:57:09;;;;;;;;;;;;;;;24.76;52.18;101233.63;4967380;28;1272;-68
2021/06/10 06:59:35;;;;;;;;;;;;;;;24.76;52.51;101230.13;4986484;28;1091;-73
2021/06/10 07:02:02;;;;;;;;;;;;;;;24.81;52.65;101228.84;4971761;28;1367;-69
2021/06/10 07:04:29;;;;;;;;;;;;;;;24.81;52.62;101228.84;4968177;28;1135;-69
2021/06/10 07:06:56;;;;;;;;;;;;;;;24.84;53.28;101230.41;5056676;28;1922;-68
2021/06/10 07:09:23;;;;;;;;;;;;;;;24.95;52.93;101233.13;5068371;28;1162;-64
2021/06/10 07:11:50;;;;;;;;;;;;;;;24.86;52.57;101226.69;4950198;28;1320;-64
2021/06/10 07:14:17;;;;;;;;;;;;;;;24.84;52.66;101230.41;5011563;28;1049;-64
2021/06/10 07:16:43;;;;;;;;;;;;;;;24.83;52.25;101226.06;5008042;28;1556;-64
2021/06/10 07:19:10;;;;;;;;;;;;;;;24.83;52.54;101223.41;4965778;28;1157;-65
2021/06/10 07:21:41;;;;;;;;;;;;;;;24.83;52.29;101228.72;4960191;28;1273;-64
2021/06/10 07:24:08;;;;;;;;;;;;;;;24.83;52.73;101223.41;5069278;28;1118;-66
2021/06/10 07:26:35;;;;;;;;;;;;;;;24.82;52.69;101229.69;5015517;28;1914;-66
2021/06/10 07:29:01;;;;;;;;;;;;;;;24.83;52.63;101232.25;4967862;28;1179;-66
2021/06/10 07:31:28;;;;;;;;;;;;;;;24.84;52.57;101230.41;4967227;28;1303;-65
2021/06/10 07:33:55;;;;;;;;;;;;;;;24.83;52.59;101229.59;4966205;28;1429;-64
2021/06/10 07:36:24;;;;;;;;;;;;;;;24.83;52.54;101223.41;4965945;28;1316;-67
2021/06/10 07:38:51;;;;;;;;;;;;;;;24.85;52.60;101232.13;4965530;28;1288;-67
2021/06/10 07:41:22;;;;;;;;;;;;;;;24.84;52.34;101225.09;4967091;28;1327;-67
2021/06/10 07:43:49;;;;;;;;;;;;;;;24.84;52.60;101235.75;4967572;28;1018;-65
2021/06/10 07:46:16;;;;;;;;;;;;;;;24.84;52.68;101228.59;4966534;28;1907;-67
2021/06/10 07:48:42;;;;;;;;;;;;;;;24.85;52.82;101232.13;4963408;28;1566;-67
2021/06/10 07:51:09;;;;;;;;;;;;;;;24.86;52.67;101233.84;4954356;28;1150;-63
2021/06/10 07:53:38;;;;;;;;;;;;;;;24.87;52.86;101232.84;4959052;28;1454;-63
2021/06/10 07:56:05;;;;;;;;;;;;;;;24.91;53.08;101231.66;4952464;28;894;-64
2021/06/10 07:58:33;;;;;;;;;;;;;;;24.88;52.77;101234.56;4958317;28;1541;-64
2021/06/10 08:01:00;;;;;;;;;;;;;;;24.90;53.41;101236.13;4986184;28;1658;-65
2021/06/10 08:03:28;;;;;;;;;;;;;;;24.90;53.41;101233.47;5067714;28;1455;-65
2021/06/10 08:05:56;;;;;;;;;;;;;;;24.90;53.49;101237.94;5041663;28;1910;-64
2021/06/10 08:08:26;;;;;;;;;;;;;;;24.91;53.36;101237.00;4947709;28;1249;-62
2021/06/10 08:10:59;;;;;;;;;;;;;;;24.92;53.68;101241.38;4935431;28;1355;-63
2021/06/10 08:13:26;;;;;;;;;;;;;;;24.92;53.97;101244.88;4995825;28;1378;-63
2021/06/10 08:15:53;;;;;;;;;;;;;;;24.95;54.20;101243.81;4993692;28;1605;-66
2021/06/10 08:18:20;;;;;;;;;;;;;;;24.96;54.03;101240.16;4947801;28;1249;-66
2021/06/10 08:20:46;;;;;;;;;;;;;;;24.99;53.90;101234.59;4951158;28;981;-65
2021/06/10 08:23:15;;;;;;;;;;;;;;;24.99;53.94;101240.78;4966876;28;1222;-62
2021/06/10 08:25:45;;;;;;;;;;;;;;;24.99;54.15;101239.91;4964558;28;1910;-65
2021/06/10 08:28:14;;;;;;;;;;;;;;;25.03;53.68;101246.72;4965200;28;1371;-64
2021/06/10 08:30:42;;;;;;;;;;;;;;;25.03;54.55;101238.72;4964239;28;1659;-66
2021/06/10 08:33:12;;;;;;;;;;;;;;;25.02;54.06;101247.69;4951296;28;1537;-71
2021/06/10 08:35:38;;;;;;;;;;;;;;;25.02;53.15;101243.19;4948072;28;1087;-71
2021/06/10 08:38:10;;;;;;;;;;;;;;;25.03;53.52;101244.06;4965426;28;1217;-72
2021/06/10 08:40:38;;;;;;;;;;;;;;;25.02;53.92;101240.53;4965741;28;969;-71
2021/06/10 08:43:06;;;;;;;;;;;;;;;25.06;52.93;101242.97;4964900;28;1352;-67
2021/06/10 08:45:33;;;;;;;;;;;;;;;25.05;53.12;101244.78;4965928;28;1968;-69
2021/06/10 08:48:01;;;;;;;;;;;;;;;25.06;52.83;101250.97;4948812;28;1811;-68
2021/06/10 08:50:28;;;;;;;;;;;;;;;25.07;53.00;101245.53;4960663;28;1554;-64
2021/06/10 08:52:55;;;;;;;;;;;;;;;25.08;53.18;101254.38;4966287;28;1316;-68
2021/06/10 08:55:23;;;;;;;;;;;;;;;25.09;52.63;101258.72;4965937;28;988;-70
2021/06/10 08:57:50;;;;;;;;;;;;;;;25.07;51.83;101256.19;4966578;28;1202;-68
2021/06/10 09:00:24;;;;;;;;;;;;;;;25.08;52.46;101255.22;4964712;28;1047;-68
2021/06/10 09:02:59;;;;;;;;;;;;;;;25.07;52.70;101250.88;4965936;28;1209;-67
2021/06/10 09:05:26;;;;;;;;;;;;;;;25.09;52.13;101254.25;4965909;28;993;-67
2021/06/10 09:07:58;;;;;;;;;;;;;;;25.12;52.69;101255.84;4945451;29;1974;-66
2021/06/10 09:10:26;;;;;;;;;;;;;;;25.12;52.41;101251.34;4947697;28;1037;-69
2021/06/10 09:12:57;;;;;;;;;;;;;;;25.09;52.13;101248.94;4965690;28;1331;-70
2021/06/10 09:15:27;;;;;;;;;;;;;;;25.13;51.44;101255.72;4964012;28;1198;-71
2021/06/10 09:17:55;;;;;;;;;;;;;;;25.13;52.10;101250.41;4964251;28;1295;-70
2021/06/10 09:20:22;;;;;;;;;;;;;;;25.14;52.19;101251.25;4965830;28;1188;-67
2021/06/10 09:22:50;;;;;;;;;;;;;;;25.14;52.10;101253.91;4964246;28;1330;-71
2021/06/10 09:25:20;;;;;;;;;;;;;;;25.15;52.05;101247.59;4964500;28;1195;-73
2021/06/10 09:27:53;;;;;;;;;;;;;;;25.15;51.72;101244.94;4966400;28;1919;-68
2021/06/10 09:30:28;;;;;;;;;;;;;;;25.15;51.71;101243.13;4965758;28;985;-67
2021/06/10 09:32:56;;;;;;;;;;;;;;;25.16;51.85;101242.16;4980107;28;1268;-66
2021/06/10 09:35:30;;;;;;;;;;;;;;;25.17;51.61;101248.34;4984758;28;1197;-67
2021/06/10 09:38:04;;;;;;;;;;;;;;;25.17;51.41;101245.69;4964086;28;1248;-71
2021/06/10 09:40:31;;;;;;;;;;;;;;;25.16;51.45;101249.31;4965167;28;1009;-69
2021/06/10 09:42:58;;;;;;;;;;;;;;;25.17;51.24;101243.84;4950640;28;1234;-71
2021/06/10 09:45:28;;;;;;;;;;;;;;;25.18;51.00;101250.03;4962597;28;1618;-71
2021/06/10 09:47:59;;;;;;;;;;;;;;;25.18;50.69;101250.88;4949082;28;1966;-63
2021/06/10 09:50:33;;;;;;;;;;;;;;;25.12;50.79;101234.50;4962583;28;1371;-62
2021/06/10 09:53:01;;;;;;;;;;;;;;;25.09;51.08;101242.75;4970841;28;1391;-65
2021/06/10 09:55:33;;;;;;;;;;;;;;;25.08;51.50;101233.88;4985275;28;992;-66
2021/06/10 09:58:14;;;;;;;;;;;;;;;25.13;50.35;101237.06;4983020;28;1236;-63
2021/06/10 10:00:48;;;;;;;;;;;;;;;25.13;51.16;101238.88;4983825;28;1142;-66
2021/06/10 10:03:42;;;;;;;;;;;;;;;25.09;50.90;101246.25;4968966;28;1286;-66
2021/06/10 10:06:20;;;;;;;;;;;;;;;25.09;50.65;101243.59;5040344;28;1930;-66
2021/06/10 10:08:48;;;;;;;;;;;;;;;25.09;50.57;101240.94;4967223;28;1284;-65
2021/06/10 10:11:16;;;;;;;;;;;;;;;25.04;50.78;101237.78;4968350;28;1284;-65
2021/06/10 10:14:05;;;;;;;;;;;;;;;25.08;50.13;101244.56;4968740;28;2006;-66
2021/06/10 10:16:35;;;;;;;;;;;;;;;25.08;50.75;101247.22;4966971;28;1419;-68
2021/06/10 10:19:03;;;;;;;;;;;;;;;25.14;50.07;101249.41;5059094;28;1136;-66
2021/06/10 10:21:31;;;;;;;;;;;;;;;25.12;50.08;101251.34;5034766;28;1377;-66
2021/06/10 10:24:02;;;;;;;;;;;;;;;25.10;50.04;101255.13;4995920;28;1149;-66
2021/06/10 10:26:30;;;;;;;;;;;;;;;25.06;50.20;101251.81;5023472;28;1969;-67
2021/06/10 10:28:57;;;;;;;;;;;;;;;25.11;49.26;101262.97;5070541;28;1021;-65
2021/06/10 10:31:24;;;;;;;;;;;;;;;25.10;49.92;101258.63;5024644;28;1276;-67
2021/06/10 10:33:51;;;;;;;;;;;;;;;25.09;49.59;101261.41;4968889;28;919;-67
2021/06/10 10:36:45;;;;;;;;;;;;;;;25.08;49.71;101255.22;5025801;28;1278;-67
2021/06/10 10:39:12;;;;;;;;;;;;;;;25.12;49.64;101251.34;4966386;28;1665;-67
2021/06/10 10:41:59;;;;;;;;;;;;;;;25.07;49.61;101250.88;4964307;28;1291;-66
2021/06/10 10:44:30;;;;;;;;;;;;;;;25.08;48.94;101246.38;4966940;28;1111;-66
2021/06/10 10:46:57;;;;;;;;;;;;;;;25.10;49.47;101253.31;4966454;28;1978;-66
2021/06/10 10:49:24;;;;;;;;;;;;;;;25.09;48.97;101256.91;4966872;28;1130;-67
2021/06/10 10:51:51;;;;;;;;;;;;;;;25.06;48.93;101250.97;5000837;28;1382;-66
2021/06/10 10:54:32;;;;;;;;;;;;;;;25.09;48.56;101258.72;5069223;28;1133;-67
2021/06/10 10:57:00;;;;;;;;;;;;;;;25.08;48.97;101249.06;5032474;28;1288;-66
2021/06/10 10:59:38;;;;;;;;;;;;;;;25.08;48.50;101254.38;4987927;28;1147;-68
2021/06/10 11:02:09;;;;;;;;;;;;;;;25.10;48.31;101247.97;4987504;28;1280;-67
2021/06/10 11:04:49;;;;;;;;;;;;;;;25.10;48.54;101253.31;4987655;28;898;-67
2021/06/10 11:07:35;;;;;;;;;;;;;;;25.07;48.49;101250.00;4987465;28;1910;-67
2021/06/10 11:10:06;;;;;;;;;;;;;;;25.07;48.33;101245.53;4985761;28;1130;-67
2021/06/10 11:12:49;;;;;;;;;;;;;;;25.11;47.92;101249.66;4987285;28;1240;-67
2021/06/10 11:15:23;;;;;;;;;;;;;;;25.08;48.24;101246.38;4978184;28;1589;-68
2021/06/10 11:17:51;;;;;;;;;;;;;;;25.23;46.32;101245.22;4955288;28;1304;-65
2021/06/10 11:20:19;;;;;;;;;;;;;;;25.21;47.16;101256.00;4953079;28;1533;-65
2021/06/10 11:22:47;;;;;;;;;;;;;;;25.17;47.14;101254.50;4958253;28;1335;-69
2021/06/10 11:25:33;;;;;;;;;;;;;;;25.18;47.94;101244.72;4956657;28;1511;-67
2021/06/10 11:28:08;;;;;;;;;;;;;;;25.20;46.17;101243.63;4964649;28;1969;-69
2021/06/10 11:30:35;;;;;;;;;;;;;;;25.22;46.15;101252.38;4957184;28;1076;-75
2021/06/10 11:33:18;;;;;;;;;;;;;;;25.21;45.57;101240.00;4965858;28;1261;-71
2021/06/10 11:35:45;;;;;;;;;;;;;;;25.23;45.00;101242.56;4951839;28;929;-71
2021/06/10 11:38:30;;;;;;;;;;;;;;;25.22;44.54;101228.38;4966518;28;1301;-71
2021/06/10 11:41:03;;;;;;;;;;;;;;;25.23;44.38;101231.91;4966471;28;1009;-71
2021/06/10 11:43:34;;;;;;;;;;;;;;;25.22;44.00;101231.03;4950465;28;1435;-71
2021/06/10 11:46:03;;;;;;;;;;;;;;;25.25;44.00;101230.81;4965722;28;1230;-71
2021/06/10 11:48:41;;;;;;;;;;;;;;;25.26;43.97;101229.81;4967086;28;1973;-70
2021/06/10 11:51:45;;;;;;;;;;;;;;;25.29;43.00;101229.59;4965686;28;1301;-69
2021/06/10 11:54:14;;;;;;;;;;;;;;;25.28;43.39;101237.72;5038785;28;1308;-70
2021/06/10 11:56:41;;;;;;;;;;;;;;;25.30;43.26;101231.28;4978311;28;1391;-69
2021/06/10 11:59:15;;;;;;;;;;;;;;;25.29;43.15;101237.56;4985064;28;1136;-69
2021/06/10 12:02:02;;;;;;;;;;;;;;;25.30;43.64;101233.97;4975293;28;1292;-71
2021/06/10 12:04:29;;;;;;;;;;;;;;;25.28;43.44;101224.38;4966681;28;1088;-71
2021/06/10 12:07:09;;;;;;;;;;;;;;;25.30;43.24;101217.97;4967375;28;1907;-71
2021/06/10 12:09:54;;;;;;;;;;;;;;;25.31;43.29;101221.47;4964297;28;1535;-72
2021/06/10 12:12:44;;;;;;;;;;;;;;;25.32;43.42;101216.00;4957973;28;1292;-69
2021/06/10 12:15:17;;;;;;;;;;;;;;;25.34;44.15;101210.56;4964044;28;1157;-73
2021/06/10 12:18:08;;;;;;;;;;;;;;;25.38;42.81;101212.88;4963402;28;1253;-74
2021/06/10 12:21:06;;;;;;;;;;;;;;;25.33;43.17;101204.38;4953127;28;2196;-71
2021/06/10 12:23:38;;;;;;;;;;;;;;;25.31;42.76;101206.34;4965162;28;1438;-72
2021/06/10 12:26:10;;;;;;;;;;;;;;;25.32;42.65;101200.00;4973006;28;1446;-73
2021/06/10 12:28:44;;;;;;;;;;;;;;;25.31;42.38;101200.16;4966160;28;1907;-73
2021/06/10 12:31:15;;;;;;;;;;;;;;;25.30;42.31;101193.97;4965532;28;1247;-73
2021/06/10 12:33:52;;;;;;;;;;;;;;;25.31;42.97;101192.16;4965007;28;1214;-72
2021/06/10 12:36:32;;;;;;;;;;;;;;;25.31;42.73;101182.34;4953046;28;1294;-71
2021/06/10 12:39:01;;;;;;;;;;;;;;;25.32;42.35;101178.69;4947685;28;1087;-74
2021/06/10 12:41:34;;;;;;;;;;;;;;;25.32;42.40;101177.84;4930813;28;1371;-72
2021/06/10 12:44:10;;;;;;;;;;;;;;;25.36;41.96;101174.81;4946051;28;1141;-72
2021/06/10 12:46:42;;;;;;;;;;;;;;;25.37;41.87;101163.19;4948235;28;1970;-70
2021/06/10 12:49:35;;;;;;;;;;;;;;;25.47;41.24;101166.00;4947458;28;1167;-72
2021/06/10 12:52:11;;;;;;;;;;;;;;;25.51;42.42;101168.31;4946818;28;1575;-70
2021/06/10 12:54:39;;;;;;;;;;;;;;;25.48;42.31;101160.56;4949617;28;1130;-69
2021/06/10 12:57:19;;;;;;;;;;;;;;;25.68;42.57;101163.47;4974712;28;1295;-68
2021/06/10 12:59:55;;;;;;;;;;;;;;;25.69;42.41;101149.13;4969291;28;1543;-70